sensor_id;sensor_type;location;lat;lon;timestamp;P1;durP1;ratioP1;P2;durP2;ratioP2
4122;SDS011;2075;51.062;6.920;2023-02-01T00:02:08;29.03;;;7.30;;
4122;SDS011;2075;51.062;6.920;2023-02-01T00:04:55;22.67;;;6.40;;
4122;SDS011;2075;51.062;6.920;2023-02-01T00:07:40;13.93;;;6.00;;
4122;SDS011;2075;51.062;6.920;2023-02-01T00:10:26;14.53;;;6.83;;
4122;SDS011;2075;51.062;6.920;2023-02-01T00:13:11;20.10;;;6.83;;
4122;SDS011;2075;51.062;6.920;2023-02-01T00:16:02;21.73;;;7.30;;
4122;SDS011;2075;51.062;6.920;2023-02-01T00:18:50;15.10;;;6.30;;
4122;SDS011;2075;51.062;6.920;2023-02-01T00:21:38;15.07;;;6.40;;
4122;SDS011;2075;51.062;6.920;2023-02-01T00:24:23;12.60;;;5.37;;
4122;SDS011;2075;51.062;6.920;2023-02-01T00:27:08;18.83;;;6.50;;
4122;SDS011;2075;51.062;6.920;2023-02-01T00:29:54;17.27;;;6.30;;
4122;SDS011;2075;51.062;6.920;2023-02-01T00:32:39;14.20;;;6.07;;
4122;SDS011;2075;51.062;6.920;2023-02-01T00:35:25;17.67;;;6.40;;
4122;SDS011;2075;51.062;6.920;2023-02-01T00:38:11;19.43;;;6.50;;
4122;SDS011;2075;51.062;6.920;2023-02-01T00:41:01;18.87;;;6.60;;
4122;SDS011;2075;51.062;6.920;2023-02-01T00:43:48;19.33;;;5.97;;
4122;SDS011;2075;51.062;6.920;2023-02-01T00:46:33;18.10;;;5.77;;
4122;SDS011;2075;51.062;6.920;2023-02-01T00:49:19;17.37;;;6.20;;
4122;SDS011;2075;51.062;6.920;2023-02-01T00:52:04;18.20;;;5.80;;
4122;SDS011;2075;51.062;6.920;2023-02-01T00:54:51;12.73;;;5.07;;
4122;SDS011;2075;51.062;6.920;2023-02-01T00:57:36;21.60;;;5.20;;
4122;SDS011;2075;51.062;6.920;2023-02-01T01:00:21;10.20;;;4.97;;
4122;SDS011;2075;51.062;6.920;2023-02-01T01:03:07;16.80;;;4.60;;
4122;SDS011;2075;51.062;6.920;2023-02-01T01:06:03;21.00;;;4.90;;
4122;SDS011;2075;51.062;6.920;2023-02-01T01:08:50;18.20;;;5.00;;
4122;SDS011;2075;51.062;6.920;2023-02-01T01:11:39;11.77;;;4.67;;
4122;SDS011;2075;51.062;6.920;2023-02-01T01:14:24;12.13;;;4.63;;
4122;SDS011;2075;51.062;6.920;2023-02-01T01:17:10;13.03;;;4.50;;
4122;SDS011;2075;51.062;6.920;2023-02-01T01:19:56;17.63;;;4.60;;
4122;SDS011;2075;51.062;6.920;2023-02-01T01:22:41;11.63;;;3.97;;
4122;SDS011;2075;51.062;6.920;2023-02-01T01:25:26;19.67;;;4.90;;
4122;SDS011;2075;51.062;6.920;2023-02-01T01:28:13;7.03;;;3.40;;
4122;SDS011;2075;51.062;6.920;2023-02-01T01:30:58;16.20;;;3.90;;
4122;SDS011;2075;51.062;6.920;2023-02-01T01:33:44;9.13;;;3.73;;
4122;SDS011;2075;51.062;6.920;2023-02-01T01:36:33;21.60;;;4.20;;
4122;SDS011;2075;51.062;6.920;2023-02-01T01:39:19;10.10;;;3.60;;
4122;SDS011;2075;51.062;6.920;2023-02-01T01:42:04;8.00;;;3.40;;
4122;SDS011;2075;51.062;6.920;2023-02-01T01:44:58;13.97;;;3.50;;
4122;SDS011;2075;51.062;6.920;2023-02-01T01:47:48;14.40;;;3.70;;
4122;SDS011;2075;51.062;6.920;2023-02-01T01:50:36;17.90;;;3.37;;
4122;SDS011;2075;51.062;6.920;2023-02-01T01:53:25;19.10;;;4.80;;
4122;SDS011;2075;51.062;6.920;2023-02-01T01:56:13;18.93;;;3.40;;
4122;SDS011;2075;51.062;6.920;2023-02-01T01:59:00;9.67;;;3.67;;
4122;SDS011;2075;51.062;6.920;2023-02-01T02:01:48;10.93;;;3.50;;
4122;SDS011;2075;51.062;6.920;2023-02-01T02:04:34;13.03;;;3.73;;
4122;SDS011;2075;51.062;6.920;2023-02-01T02:07:21;10.73;;;3.57;;
4122;SDS011;2075;51.062;6.920;2023-02-01T02:10:11;13.33;;;4.07;;
4122;SDS011;2075;51.062;6.920;2023-02-01T02:12:58;9.10;;;3.70;;
4122;SDS011;2075;51.062;6.920;2023-02-01T02:15:48;11.70;;;3.50;;
4122;SDS011;2075;51.062;6.920;2023-02-01T02:18:57;19.20;;;3.43;;
4122;SDS011;2075;51.062;6.920;2023-02-01T02:22:04;28.57;;;4.90;;
4122;SDS011;2075;51.062;6.920;2023-02-01T02:25:24;8.53;;;3.87;;
4122;SDS011;2075;51.062;6.920;2023-02-01T02:28:36;11.40;;;3.70;;
4122;SDS011;2075;51.062;6.920;2023-02-01T02:31:46;17.53;;;3.63;;
4122;SDS011;2075;51.062;6.920;2023-02-01T02:34:50;22.13;;;4.30;;
4122;SDS011;2075;51.062;6.920;2023-02-01T02:37:42;8.00;;;3.57;;
4122;SDS011;2075;51.062;6.920;2023-02-01T02:40:32;12.93;;;4.00;;
4122;SDS011;2075;51.062;6.920;2023-02-01T02:43:28;16.17;;;3.60;;
4122;SDS011;2075;51.062;6.920;2023-02-01T02:46:38;16.97;;;4.10;;
4122;SDS011;2075;51.062;6.920;2023-02-01T02:49:51;16.43;;;4.13;;
4122;SDS011;2075;51.062;6.920;2023-02-01T02:52:56;15.80;;;4.27;;
4122;SDS011;2075;51.062;6.920;2023-02-01T02:56:05;10.70;;;3.73;;
4122;SDS011;2075;51.062;6.920;2023-02-01T02:59:11;11.23;;;3.53;;
4122;SDS011;2075;51.062;6.920;2023-02-01T03:02:17;11.70;;;3.47;;
4122;SDS011;2075;51.062;6.920;2023-02-01T03:05:22;22.00;;;3.70;;
4122;SDS011;2075;51.062;6.920;2023-02-01T03:08:10;14.00;;;3.60;;
4122;SDS011;2075;51.062;6.920;2023-02-01T03:10:57;12.63;;;3.70;;
4122;SDS011;2075;51.062;6.920;2023-02-01T03:13:48;16.37;;;4.33;;
4122;SDS011;2075;51.062;6.920;2023-02-01T03:16:36;12.53;;;4.40;;
4122;SDS011;2075;51.062;6.920;2023-02-01T03:19:29;15.60;;;4.13;;
4122;SDS011;2075;51.062;6.920;2023-02-01T03:22:20;12.37;;;3.90;;
4122;SDS011;2075;51.062;6.920;2023-02-01T03:25:09;13.90;;;4.17;;
4122;SDS011;2075;51.062;6.920;2023-02-01T03:27:57;10.90;;;4.00;;
4122;SDS011;2075;51.062;6.920;2023-02-01T03:30:46;10.13;;;4.30;;
4122;SDS011;2075;51.062;6.920;2023-02-01T03:33:33;13.17;;;5.40;;
4122;SDS011;2075;51.062;6.920;2023-02-01T03:36:20;19.00;;;4.80;;
4122;SDS011;2075;51.062;6.920;2023-02-01T03:39:14;15.00;;;4.30;;
4122;SDS011;2075;51.062;6.920;2023-02-01T03:42:03;18.27;;;4.67;;
4122;SDS011;2075;51.062;6.920;2023-02-01T03:44:54;27.13;;;6.20;;
4122;SDS011;2075;51.062;6.920;2023-02-01T03:47:46;17.03;;;4.70;;
4122;SDS011;2075;51.062;6.920;2023-02-01T03:50:36;22.67;;;5.27;;
4122;SDS011;2075;51.062;6.920;2023-02-01T03:53:27;18.70;;;4.70;;
4122;SDS011;2075;51.062;6.920;2023-02-01T03:56:15;20.60;;;4.70;;
4122;SDS011;2075;51.062;6.920;2023-02-01T03:59:03;26.43;;;4.47;;
4122;SDS011;2075;51.062;6.920;2023-02-01T04:01:52;16.30;;;3.73;;
4122;SDS011;2075;51.062;6.920;2023-02-01T04:04:38;16.77;;;4.10;;
4122;SDS011;2075;51.062;6.920;2023-02-01T04:07:24;21.27;;;3.93;;
4122;SDS011;2075;51.062;6.920;2023-02-01T04:10:09;13.30;;;3.50;;
4122;SDS011;2075;51.062;6.920;2023-02-01T04:12:57;9.30;;;3.83;;
4122;SDS011;2075;51.062;6.920;2023-02-01T04:15:42;13.80;;;3.70;;
4122;SDS011;2075;51.062;6.920;2023-02-01T04:18:29;13.90;;;3.77;;
4122;SDS011;2075;51.062;6.920;2023-02-01T04:21:17;16.13;;;3.33;;
4122;SDS011;2075;51.062;6.920;2023-02-01T04:24:03;19.43;;;4.13;;
4122;SDS011;2075;51.062;6.920;2023-02-01T04:26:49;16.17;;;3.90;;
4122;SDS011;2075;51.062;6.920;2023-02-01T04:29:35;14.20;;;4.10;;
4122;SDS011;2075;51.062;6.920;2023-02-01T04:32:21;13.00;;;4.50;;
4122;SDS011;2075;51.062;6.920;2023-02-01T04:35:06;13.67;;;3.70;;
4122;SDS011;2075;51.062;6.920;2023-02-01T04:37:52;13.63;;;4.40;;
4122;SDS011;2075;51.062;6.920;2023-02-01T04:40:38;14.97;;;4.10;;
4122;SDS011;2075;51.062;6.920;2023-02-01T04:43:23;16.93;;;4.77;;
4122;SDS011;2075;51.062;6.920;2023-02-01T04:46:10;12.60;;;3.93;;
4122;SDS011;2075;51.062;6.920;2023-02-01T04:48:55;10.57;;;3.17;;
4122;SDS011;2075;51.062;6.920;2023-02-01T04:51:41;14.73;;;4.30;;
4122;SDS011;2075;51.062;6.920;2023-02-01T04:54:26;12.67;;;3.40;;
4122;SDS011;2075;51.062;6.920;2023-02-01T04:57:11;12.10;;;3.97;;
4122;SDS011;2075;51.062;6.920;2023-02-01T04:59:59;9.73;;;3.50;;
4122;SDS011;2075;51.062;6.920;2023-02-01T05:02:45;18.73;;;3.60;;
4122;SDS011;2075;51.062;6.920;2023-02-01T05:05:31;14.67;;;4.07;;
4122;SDS011;2075;51.062;6.920;2023-02-01T05:08:16;19.27;;;4.00;;
4122;SDS011;2075;51.062;6.920;2023-02-01T05:11:01;13.23;;;3.60;;
4122;SDS011;2075;51.062;6.920;2023-02-01T05:13:47;23.37;;;4.37;;
4122;SDS011;2075;51.062;6.920;2023-02-01T05:16:35;12.67;;;3.50;;
4122;SDS011;2075;51.062;6.920;2023-02-01T05:19:22;30.27;;;4.67;;
4122;SDS011;2075;51.062;6.920;2023-02-01T05:22:07;21.13;;;3.93;;
4122;SDS011;2075;51.062;6.920;2023-02-01T05:24:52;17.13;;;4.00;;
4122;SDS011;2075;51.062;6.920;2023-02-01T05:27:37;19.20;;;4.20;;
4122;SDS011;2075;51.062;6.920;2023-02-01T05:30:23;22.80;;;3.77;;
4122;SDS011;2075;51.062;6.920;2023-02-01T05:33:09;12.33;;;3.50;;
4122;SDS011;2075;51.062;6.920;2023-02-01T05:35:56;19.77;;;3.37;;
4122;SDS011;2075;51.062;6.920;2023-02-01T05:38:41;9.60;;;3.50;;
4122;SDS011;2075;51.062;6.920;2023-02-01T05:41:26;14.17;;;3.57;;
4122;SDS011;2075;51.062;6.920;2023-02-01T05:44:12;17.37;;;4.27;;
4122;SDS011;2075;51.062;6.920;2023-02-01T05:46:57;15.30;;;3.13;;
4122;SDS011;2075;51.062;6.920;2023-02-01T05:49:42;22.07;;;3.40;;
4122;SDS011;2075;51.062;6.920;2023-02-01T05:52:29;7.70;;;3.43;;
4122;SDS011;2075;51.062;6.920;2023-02-01T05:55:15;16.90;;;3.07;;
4122;SDS011;2075;51.062;6.920;2023-02-01T05:58:01;10.80;;;2.93;;
4122;SDS011;2075;51.062;6.920;2023-02-01T06:00:46;11.73;;;3.50;;
4122;SDS011;2075;51.062;6.920;2023-02-01T06:03:32;14.93;;;3.87;;
4122;SDS011;2075;51.062;6.920;2023-02-01T06:06:17;12.37;;;2.90;;
4122;SDS011;2075;51.062;6.920;2023-02-01T06:09:04;11.63;;;3.37;;
4122;SDS011;2075;51.062;6.920;2023-02-01T06:11:50;12.83;;;2.93;;
4122;SDS011;2075;51.062;6.920;2023-02-01T06:14:35;15.73;;;4.10;;
4122;SDS011;2075;51.062;6.920;2023-02-01T06:17:21;10.83;;;3.73;;
4122;SDS011;2075;51.062;6.920;2023-02-01T06:20:07;18.33;;;3.73;;
4122;SDS011;2075;51.062;6.920;2023-02-01T06:22:54;13.73;;;3.70;;
4122;SDS011;2075;51.062;6.920;2023-02-01T06:25:41;16.27;;;4.07;;
4122;SDS011;2075;51.062;6.920;2023-02-01T06:28:26;15.00;;;3.83;;
4122;SDS011;2075;51.062;6.920;2023-02-01T06:31:12;19.30;;;3.70;;
4122;SDS011;2075;51.062;6.920;2023-02-01T06:33:57;18.10;;;4.03;;
4122;SDS011;2075;51.062;6.920;2023-02-01T06:36:43;17.03;;;3.80;;
4122;SDS011;2075;51.062;6.920;2023-02-01T06:39:28;19.60;;;3.63;;
4122;SDS011;2075;51.062;6.920;2023-02-01T06:42:15;23.43;;;3.33;;
4122;SDS011;2075;51.062;6.920;2023-02-01T06:45:00;14.60;;;3.73;;
4122;SDS011;2075;51.062;6.920;2023-02-01T06:47:46;14.60;;;3.17;;
4122;SDS011;2075;51.062;6.920;2023-02-01T06:50:31;14.83;;;3.90;;
4122;SDS011;2075;51.062;6.920;2023-02-01T06:53:18;15.03;;;3.40;;
4122;SDS011;2075;51.062;6.920;2023-02-01T06:56:04;29.20;;;4.53;;
4122;SDS011;2075;51.062;6.920;2023-02-01T06:58:51;10.87;;;3.67;;
4122;SDS011;2075;51.062;6.920;2023-02-01T07:01:36;17.73;;;4.53;;
4122;SDS011;2075;51.062;6.920;2023-02-01T07:04:22;10.40;;;3.37;;
4122;SDS011;2075;51.062;6.920;2023-02-01T07:07:07;13.40;;;3.37;;
4122;SDS011;2075;51.062;6.920;2023-02-01T07:09:56;17.20;;;4.80;;
4122;SDS011;2075;51.062;6.920;2023-02-01T07:12:41;12.93;;;3.33;;
4122;SDS011;2075;51.062;6.920;2023-02-01T07:15:28;17.00;;;3.80;;
4122;SDS011;2075;51.062;6.920;2023-02-01T07:18:14;10.73;;;3.43;;
4122;SDS011;2075;51.062;6.920;2023-02-01T07:20:59;12.40;;;3.80;;
4122;SDS011;2075;51.062;6.920;2023-02-01T07:23:45;11.43;;;4.33;;
4122;SDS011;2075;51.062;6.920;2023-02-01T07:26:30;15.70;;;4.37;;
4122;SDS011;2075;51.062;6.920;2023-02-01T07:29:16;11.20;;;2.90;;
4122;SDS011;2075;51.062;6.920;2023-02-01T07:32:03;19.90;;;3.90;;
4122;SDS011;2075;51.062;6.920;2023-02-01T07:34:50;10.90;;;3.80;;
4122;SDS011;2075;51.062;6.920;2023-02-01T07:37:35;28.53;;;6.00;;
4122;SDS011;2075;51.062;6.920;2023-02-01T07:40:21;23.03;;;4.73;;
4122;SDS011;2075;51.062;6.920;2023-02-01T07:43:12;10.23;;;3.10;;
4122;SDS011;2075;51.062;6.920;2023-02-01T07:45:57;19.93;;;4.30;;
4122;SDS011;2075;51.062;6.920;2023-02-01T07:48:44;15.13;;;5.47;;
4122;SDS011;2075;51.062;6.920;2023-02-01T07:51:29;20.40;;;3.97;;
4122;SDS011;2075;51.062;6.920;2023-02-01T07:54:15;18.13;;;4.03;;
4122;SDS011;2075;51.062;6.920;2023-02-01T07:57:00;20.33;;;3.80;;
4122;SDS011;2075;51.062;6.920;2023-02-01T07:59:46;14.60;;;4.03;;
4122;SDS011;2075;51.062;6.920;2023-02-01T08:02:57;17.43;;;3.90;;
4122;SDS011;2075;51.062;6.920;2023-02-01T08:05:44;14.83;;;4.07;;
4122;SDS011;2075;51.062;6.920;2023-02-01T08:08:29;26.70;;;4.07;;
4122;SDS011;2075;51.062;6.920;2023-02-01T08:11:15;12.80;;;3.73;;
4122;SDS011;2075;51.062;6.920;2023-02-01T08:14:01;16.13;;;4.03;;
4122;SDS011;2075;51.062;6.920;2023-02-01T08:16:46;11.00;;;4.20;;
4122;SDS011;2075;51.062;6.920;2023-02-01T08:19:32;15.13;;;5.23;;
4122;SDS011;2075;51.062;6.920;2023-02-01T08:22:19;15.87;;;5.00;;
4122;SDS011;2075;51.062;6.920;2023-02-01T08:25:04;24.20;;;4.80;;
4122;SDS011;2075;51.062;6.920;2023-02-01T08:27:50;14.30;;;4.77;;
4122;SDS011;2075;51.062;6.920;2023-02-01T08:30:37;21.53;;;3.90;;
4122;SDS011;2075;51.062;6.920;2023-02-01T08:33:23;23.97;;;5.07;;
4122;SDS011;2075;51.062;6.920;2023-02-01T08:36:09;15.97;;;3.67;;
4122;SDS011;2075;51.062;6.920;2023-02-01T08:38:57;12.70;;;4.73;;
4122;SDS011;2075;51.062;6.920;2023-02-01T08:41:42;11.93;;;4.27;;
4122;SDS011;2075;51.062;6.920;2023-02-01T08:44:48;14.07;;;3.63;;
4122;SDS011;2075;51.062;6.920;2023-02-01T08:47:33;11.73;;;4.00;;
4122;SDS011;2075;51.062;6.920;2023-02-01T08:50:19;12.77;;;3.20;;
4122;SDS011;2075;51.062;6.920;2023-02-01T08:53:06;8.00;;;3.63;;
4122;SDS011;2075;51.062;6.920;2023-02-01T08:55:53;12.80;;;3.73;;
4122;SDS011;2075;51.062;6.920;2023-02-01T08:58:38;9.47;;;3.60;;
4122;SDS011;2075;51.062;6.920;2023-02-01T09:01:24;19.40;;;4.70;;
4122;SDS011;2075;51.062;6.920;2023-02-01T09:04:09;16.50;;;4.23;;
4122;SDS011;2075;51.062;6.920;2023-02-01T09:06:55;14.67;;;3.77;;
4122;SDS011;2075;51.062;6.920;2023-02-01T09:09:40;14.13;;;4.47;;
4122;SDS011;2075;51.062;6.920;2023-02-01T09:12:28;14.83;;;3.57;;
4122;SDS011;2075;51.062;6.920;2023-02-01T09:15:14;17.17;;;4.10;;
4122;SDS011;2075;51.062;6.920;2023-02-01T09:17:59;17.33;;;3.90;;
4122;SDS011;2075;51.062;6.920;2023-02-01T09:20:45;10.07;;;3.53;;
4122;SDS011;2075;51.062;6.920;2023-02-01T09:23:30;15.90;;;3.90;;
4122;SDS011;2075;51.062;6.920;2023-02-01T09:26:15;24.90;;;4.67;;
4122;SDS011;2075;51.062;6.920;2023-02-01T09:29:02;18.57;;;4.27;;
4122;SDS011;2075;51.062;6.920;2023-02-01T09:31:50;18.10;;;4.40;;
4122;SDS011;2075;51.062;6.920;2023-02-01T09:34:35;12.43;;;3.90;;
4122;SDS011;2075;51.062;6.920;2023-02-01T09:37:20;20.13;;;4.80;;
4122;SDS011;2075;51.062;6.920;2023-02-01T09:40:06;21.63;;;4.00;;
4122;SDS011;2075;51.062;6.920;2023-02-01T09:43:01;14.93;;;3.73;;
4122;SDS011;2075;51.062;6.920;2023-02-01T09:46:02;13.90;;;3.73;;
4122;SDS011;2075;51.062;6.920;2023-02-01T09:49:01;8.97;;;3.87;;
4122;SDS011;2075;51.062;6.920;2023-02-01T09:51:51;23.10;;;4.77;;
4122;SDS011;2075;51.062;6.920;2023-02-01T09:54:40;18.63;;;4.50;;
4122;SDS011;2075;51.062;6.920;2023-02-01T09:57:32;12.07;;;4.50;;
4122;SDS011;2075;51.062;6.920;2023-02-01T10:00:27;23.27;;;4.77;;
4122;SDS011;2075;51.062;6.920;2023-02-01T10:03:16;14.07;;;4.00;;
4122;SDS011;2075;51.062;6.920;2023-02-01T10:06:09;28.57;;;5.10;;
4122;SDS011;2075;51.062;6.920;2023-02-01T10:09:10;15.20;;;4.03;;
4122;SDS011;2075;51.062;6.920;2023-02-01T10:12:16;24.13;;;4.63;;
4122;SDS011;2075;51.062;6.920;2023-02-01T10:15:24;15.57;;;4.33;;
4122;SDS011;2075;51.062;6.920;2023-02-01T10:18:27;15.07;;;4.30;;
4122;SDS011;2075;51.062;6.920;2023-02-01T10:21:27;15.90;;;4.23;;
4122;SDS011;2075;51.062;6.920;2023-02-01T10:24:36;21.50;;;4.70;;
4122;SDS011;2075;51.062;6.920;2023-02-01T10:27:27;11.47;;;3.40;;
4122;SDS011;2075;51.062;6.920;2023-02-01T10:30:18;10.80;;;3.87;;
4122;SDS011;2075;51.062;6.920;2023-02-01T10:33:12;18.77;;;4.70;;
4122;SDS011;2075;51.062;6.920;2023-02-01T10:36:04;19.30;;;4.40;;
4122;SDS011;2075;51.062;6.920;2023-02-01T10:38:58;16.13;;;5.10;;
4122;SDS011;2075;51.062;6.920;2023-02-01T10:41:46;15.53;;;4.37;;
4122;SDS011;2075;51.062;6.920;2023-02-01T10:44:32;22.03;;;4.17;;
4122;SDS011;2075;51.062;6.920;2023-02-01T10:47:24;13.20;;;4.20;;
4122;SDS011;2075;51.062;6.920;2023-02-01T10:50:13;11.70;;;4.43;;
4122;SDS011;2075;51.062;6.920;2023-02-01T10:53:06;12.10;;;4.37;;
4122;SDS011;2075;51.062;6.920;2023-02-01T10:55:57;15.93;;;3.77;;
4122;SDS011;2075;51.062;6.920;2023-02-01T10:58:43;16.03;;;4.07;;
4122;SDS011;2075;51.062;6.920;2023-02-01T11:01:30;24.43;;;4.40;;
4122;SDS011;2075;51.062;6.920;2023-02-01T11:04:19;15.20;;;4.00;;
4122;SDS011;2075;51.062;6.920;2023-02-01T11:07:13;13.30;;;3.10;;
4122;SDS011;2075;51.062;6.920;2023-02-01T11:10:04;18.73;;;4.70;;
4122;SDS011;2075;51.062;6.920;2023-02-01T11:12:52;11.27;;;3.60;;
4122;SDS011;2075;51.062;6.920;2023-02-01T11:15:38;18.50;;;4.93;;
4122;SDS011;2075;51.062;6.920;2023-02-01T11:18:29;15.00;;;4.13;;
4122;SDS011;2075;51.062;6.920;2023-02-01T11:21:16;15.30;;;3.43;;
4122;SDS011;2075;51.062;6.920;2023-02-01T11:24:02;21.63;;;4.60;;
4122;SDS011;2075;51.062;6.920;2023-02-01T11:26:50;26.73;;;4.27;;
4122;SDS011;2075;51.062;6.920;2023-02-01T11:29:40;16.27;;;4.80;;
4122;SDS011;2075;51.062;6.920;2023-02-01T11:32:27;18.20;;;3.40;;
4122;SDS011;2075;51.062;6.920;2023-02-01T11:35:14;19.90;;;4.10;;
4122;SDS011;2075;51.062;6.920;2023-02-01T11:38:09;17.90;;;4.60;;
4122;SDS011;2075;51.062;6.920;2023-02-01T11:41:10;20.70;;;5.80;;
4122;SDS011;2075;51.062;6.920;2023-02-01T11:44:00;17.17;;;4.90;;
4122;SDS011;2075;51.062;6.920;2023-02-01T11:46:46;21.27;;;5.63;;
4122;SDS011;2075;51.062;6.920;2023-02-01T11:49:32;20.83;;;5.90;;
4122;SDS011;2075;51.062;6.920;2023-02-01T11:52:18;14.03;;;4.90;;
4122;SDS011;2075;51.062;6.920;2023-02-01T11:55:29;9.93;;;5.00;;
4122;SDS011;2075;51.062;6.920;2023-02-01T12:02:00;20.20;;;6.70;;
4122;SDS011;2075;51.062;6.920;2023-02-01T12:05:00;13.07;;;6.10;;
4122;SDS011;2075;51.062;6.920;2023-02-01T12:08:03;13.70;;;3.80;;
4122;SDS011;2075;51.062;6.920;2023-02-01T12:11:17;12.57;;;4.80;;
4122;SDS011;2075;51.062;6.920;2023-02-01T12:14:18;17.48;;;5.90;;
4122;SDS011;2075;51.062;6.920;2023-02-01T12:17:16;19.07;;;4.40;;
4122;SDS011;2075;51.062;6.920;2023-02-01T12:20:20;20.93;;;5.00;;
4122;SDS011;2075;51.062;6.920;2023-02-01T12:23:18;9.67;;;4.50;;
4122;SDS011;2075;51.062;6.920;2023-02-01T12:26:21;17.03;;;4.07;;
4122;SDS011;2075;51.062;6.920;2023-02-01T12:29:29;12.40;;;4.37;;
4122;SDS011;2075;51.062;6.920;2023-02-01T12:32:36;17.20;;;4.83;;
4122;SDS011;2075;51.062;6.920;2023-02-01T12:38:51;14.63;;;4.33;;
4122;SDS011;2075;51.062;6.920;2023-02-01T12:41:45;31.87;;;4.53;;
4122;SDS011;2075;51.062;6.920;2023-02-01T12:44:40;17.57;;;4.33;;
4122;SDS011;2075;51.062;6.920;2023-02-01T12:47:33;14.40;;;4.43;;
4122;SDS011;2075;51.062;6.920;2023-02-01T12:50:24;14.63;;;3.70;;
4122;SDS011;2075;51.062;6.920;2023-02-01T12:53:17;20.90;;;4.70;;
4122;SDS011;2075;51.062;6.920;2023-02-01T12:56:08;9.80;;;3.53;;
4122;SDS011;2075;51.062;6.920;2023-02-01T12:58:59;16.70;;;4.10;;
4122;SDS011;2075;51.062;6.920;2023-02-01T13:01:52;23.57;;;3.00;;
4122;SDS011;2075;51.062;6.920;2023-02-01T13:04:49;16.83;;;3.97;;
4122;SDS011;2075;51.062;6.920;2023-02-01T13:07:44;17.97;;;5.63;;
4122;SDS011;2075;51.062;6.920;2023-02-01T13:10:35;12.93;;;4.07;;
4122;SDS011;2075;51.062;6.920;2023-02-01T13:13:27;10.50;;;3.50;;
4122;SDS011;2075;51.062;6.920;2023-02-01T13:16:18;9.77;;;3.20;;
4122;SDS011;2075;51.062;6.920;2023-02-01T13:19:13;8.77;;;3.50;;
4122;SDS011;2075;51.062;6.920;2023-02-01T13:22:11;14.37;;;4.00;;
4122;SDS011;2075;51.062;6.920;2023-02-01T13:25:00;19.40;;;5.30;;
4122;SDS011;2075;51.062;6.920;2023-02-01T13:27:49;10.10;;;3.50;;
4122;SDS011;2075;51.062;6.920;2023-02-01T13:30:45;8.83;;;2.70;;
4122;SDS011;2075;51.062;6.920;2023-02-01T13:37:20;14.40;;;3.40;;
4122;SDS011;2075;51.062;6.920;2023-02-01T13:40:21;10.10;;;3.20;;
4122;SDS011;2075;51.062;6.920;2023-02-01T13:43:23;14.73;;;3.40;;
4122;SDS011;2075;51.062;6.920;2023-02-01T13:46:11;15.00;;;3.73;;
4122;SDS011;2075;51.062;6.920;2023-02-01T13:48:59;9.43;;;3.87;;
4122;SDS011;2075;51.062;6.920;2023-02-01T13:51:49;22.67;;;3.30;;
4122;SDS011;2075;51.062;6.920;2023-02-01T13:54:38;12.97;;;3.23;;
4122;SDS011;2075;51.062;6.920;2023-02-01T13:57:32;11.73;;;3.83;;
4122;SDS011;2075;51.062;6.920;2023-02-01T14:00:26;8.60;;;3.20;;
4122;SDS011;2075;51.062;6.920;2023-02-01T14:03:16;12.33;;;3.20;;
4122;SDS011;2075;51.062;6.920;2023-02-01T14:06:05;17.33;;;3.40;;
4122;SDS011;2075;51.062;6.920;2023-02-01T14:09:30;21.50;;;3.20;;
4122;SDS011;2075;51.062;6.920;2023-02-01T14:15:28;11.83;;;3.20;;
4122;SDS011;2075;51.062;6.920;2023-02-01T14:21:32;13.80;;;3.57;;
4122;SDS011;2075;51.062;6.920;2023-02-01T14:24:23;15.63;;;3.10;;
4122;SDS011;2075;51.062;6.920;2023-02-01T14:27:16;15.90;;;3.37;;
4122;SDS011;2075;51.062;6.920;2023-02-01T14:30:06;16.50;;;3.07;;
4122;SDS011;2075;51.062;6.920;2023-02-01T14:32:57;19.07;;;4.20;;
4122;SDS011;2075;51.062;6.920;2023-02-01T14:35:43;18.70;;;3.30;;
4122;SDS011;2075;51.062;6.920;2023-02-01T14:38:47;18.10;;;3.50;;
4122;SDS011;2075;51.062;6.920;2023-02-01T14:41:34;13.03;;;2.90;;
4122;SDS011;2075;51.062;6.920;2023-02-01T14:44:32;5.80;;;2.60;;
4122;SDS011;2075;51.062;6.920;2023-02-01T14:47:31;13.73;;;3.23;;
4122;SDS011;2075;51.062;6.920;2023-02-01T14:50:21;11.00;;;3.53;;
4122;SDS011;2075;51.062;6.920;2023-02-01T14:53:16;10.97;;;2.50;;
4122;SDS011;2075;51.062;6.920;2023-02-01T14:56:07;10.10;;;2.70;;
4122;SDS011;2075;51.062;6.920;2023-02-01T14:59:00;13.33;;;3.10;;
4122;SDS011;2075;51.062;6.920;2023-02-01T15:01:56;10.67;;;2.83;;
4122;SDS011;2075;51.062;6.920;2023-02-01T15:04:43;15.77;;;2.77;;
4122;SDS011;2075;51.062;6.920;2023-02-01T15:07:29;10.00;;;2.53;;
4122;SDS011;2075;51.062;6.920;2023-02-01T15:10:16;14.83;;;2.07;;
4122;SDS011;2075;51.062;6.920;2023-02-01T15:13:02;8.30;;;3.03;;
4122;SDS011;2075;51.062;6.920;2023-02-01T15:16:00;13.53;;;2.73;;
4122;SDS011;2075;51.062;6.920;2023-02-01T15:18:57;11.30;;;2.87;;
4122;SDS011;2075;51.062;6.920;2023-02-01T15:21:52;12.77;;;3.93;;
4122;SDS011;2075;51.062;6.920;2023-02-01T15:24:41;15.23;;;2.90;;
4122;SDS011;2075;51.062;6.920;2023-02-01T15:27:27;10.23;;;2.83;;
4122;SDS011;2075;51.062;6.920;2023-02-01T15:30:16;6.80;;;2.80;;
4122;SDS011;2075;51.062;6.920;2023-02-01T15:33:04;9.83;;;2.77;;
4122;SDS011;2075;51.062;6.920;2023-02-01T15:35:53;11.23;;;2.93;;
4122;SDS011;2075;51.062;6.920;2023-02-01T15:38:39;13.77;;;3.13;;
4122;SDS011;2075;51.062;6.920;2023-02-01T15:41:28;13.50;;;3.10;;
4122;SDS011;2075;51.062;6.920;2023-02-01T15:44:19;15.93;;;2.90;;
4122;SDS011;2075;51.062;6.920;2023-02-01T15:47:13;13.43;;;2.80;;
4122;SDS011;2075;51.062;6.920;2023-02-01T15:50:00;15.67;;;3.33;;
4122;SDS011;2075;51.062;6.920;2023-02-01T15:52:49;10.13;;;3.10;;
4122;SDS011;2075;51.062;6.920;2023-02-01T15:55:36;11.03;;;2.30;;
4122;SDS011;2075;51.062;6.920;2023-02-01T15:58:25;17.27;;;5.90;;
4122;SDS011;2075;51.062;6.920;2023-02-01T16:01:12;15.33;;;3.70;;
4122;SDS011;2075;51.062;6.920;2023-02-01T16:04:02;13.73;;;2.80;;
4122;SDS011;2075;51.062;6.920;2023-02-01T16:06:56;18.27;;;3.40;;
4122;SDS011;2075;51.062;6.920;2023-02-01T16:09:51;22.13;;;3.00;;
4122;SDS011;2075;51.062;6.920;2023-02-01T16:12:45;19.43;;;2.97;;
4122;SDS011;2075;51.062;6.920;2023-02-01T16:15:32;12.77;;;3.10;;
4122;SDS011;2075;51.062;6.920;2023-02-01T16:18:17;9.33;;;2.80;;
4122;SDS011;2075;51.062;6.920;2023-02-01T16:21:03;16.27;;;3.60;;
4122;SDS011;2075;51.062;6.920;2023-02-01T16:23:53;9.07;;;2.60;;
4122;SDS011;2075;51.062;6.920;2023-02-01T16:26:40;19.83;;;3.13;;
4122;SDS011;2075;51.062;6.920;2023-02-01T16:29:25;8.90;;;2.90;;
4122;SDS011;2075;51.062;6.920;2023-02-01T16:32:14;24.63;;;3.90;;
4122;SDS011;2075;51.062;6.920;2023-02-01T16:35:02;16.47;;;4.53;;
4122;SDS011;2075;51.062;6.920;2023-02-01T16:37:49;13.43;;;4.20;;
4122;SDS011;2075;51.062;6.920;2023-02-01T16:40:34;11.90;;;4.33;;
4122;SDS011;2075;51.062;6.920;2023-02-01T16:43:23;15.83;;;4.77;;
4122;SDS011;2075;51.062;6.920;2023-02-01T16:46:12;14.13;;;4.10;;
4122;SDS011;2075;51.062;6.920;2023-02-01T16:49:00;12.00;;;3.63;;
4122;SDS011;2075;51.062;6.920;2023-02-01T16:51:47;16.70;;;3.60;;
4122;SDS011;2075;51.062;6.920;2023-02-01T16:54:33;8.73;;;3.60;;
4122;SDS011;2075;51.062;6.920;2023-02-01T16:57:19;16.70;;;3.37;;
4122;SDS011;2075;51.062;6.920;2023-02-01T17:00:09;10.63;;;3.27;;
4122;SDS011;2075;51.062;6.920;2023-02-01T17:02:56;22.87;;;3.80;;
4122;SDS011;2075;51.062;6.920;2023-02-01T17:05:42;14.13;;;3.70;;
4122;SDS011;2075;51.062;6.920;2023-02-01T17:08:31;7.50;;;3.23;;
4122;SDS011;2075;51.062;6.920;2023-02-01T17:11:17;15.27;;;3.87;;
4122;SDS011;2075;51.062;6.920;2023-02-01T17:14:09;11.47;;;2.80;;
4122;SDS011;2075;51.062;6.920;2023-02-01T17:17:01;14.43;;;5.83;;
4122;SDS011;2075;51.062;6.920;2023-02-01T17:19:47;14.97;;;3.30;;
4122;SDS011;2075;51.062;6.920;2023-02-01T17:22:35;14.37;;;3.20;;
4122;SDS011;2075;51.062;6.920;2023-02-01T17:25:21;18.87;;;4.07;;
4122;SDS011;2075;51.062;6.920;2023-02-01T17:28:07;16.20;;;3.77;;
4122;SDS011;2075;51.062;6.920;2023-02-01T17:30:52;12.23;;;3.30;;
4122;SDS011;2075;51.062;6.920;2023-02-01T17:33:39;11.07;;;3.10;;
4122;SDS011;2075;51.062;6.920;2023-02-01T17:36:27;13.90;;;3.10;;
4122;SDS011;2075;51.062;6.920;2023-02-01T17:39:13;14.63;;;3.93;;